sensor_id;sensor_type;location;lat;lon;timestamp;pressure;altitude;pressure_sealevel;temperature;humidity
61961;BME280;47923;42.506;24.192;2023-04-19T00:01:25;95069.69;;;7.18;100.00
61961;BME280;47923;42.506;24.192;2023-04-19T00:03:51;95044.19;;;6.96;100.00
61961;BME280;47923;42.506;24.192;2023-04-19T00:06:16;95060.41;;;7.00;100.00
61961;BME280;47923;42.506;24.192;2023-04-19T00:08:42;95070.81;;;7.17;100.00
61961;BME280;47923;42.506;24.192;2023-04-19T00:11:08;94628.81;;;4.32;100.00
61961;BME280;47923;42.506;24.192;2023-04-19T00:13:34;94972.44;;;6.65;100.00
61961;BME280;47923;42.506;24.192;2023-04-19T00:15:59;95067.19;;;7.25;100.00
61961;BME280;47923;42.506;24.192;2023-04-19T00:18:25;95053.75;;;7.25;100.00
61961;BME280;47923;42.506;24.192;2023-04-19T00:20:51;95071.78;;;7.25;100.00
61961;BME280;47923;42.506;24.192;2023-04-19T00:23:16;95006.59;;;6.96;100.00
61961;BME280;47923;42.506;24.192;2023-04-19T00:25:42;94925.88;;;6.29;100.00
61961;BME280;47923;42.506;24.192;2023-04-19T00:28:07;95048.53;;;7.16;100.00
61961;BME280;47923;42.506;24.192;2023-04-19T00:30:33;95023.16;;;6.98;100.00
61961;BME280;47923;42.506;24.192;2023-04-19T00:32:58;94587.19;;;4.19;100.00
61961;BME280;47923;42.506;24.192;2023-04-19T00:35:24;94596.88;;;4.11;100.00
61961;BME280;47923;42.506;24.192;2023-04-19T00:37:49;94651.00;;;4.32;100.00
61961;BME280;47923;42.506;24.192;2023-04-19T00:40:15;95031.72;;;7.04;100.00
61961;BME280;47923;42.506;24.192;2023-04-19T00:42:41;94963.97;;;6.35;100.00
61961;BME280;47923;42.506;24.192;2023-04-19T00:45:07;94912.88;;;6.16;100.00
61961;BME280;47923;42.506;24.192;2023-04-19T00:47:34;95043.50;;;6.99;100.00
61961;BME280;47923;42.506;24.192;2023-04-19T00:50:01;94587.44;;;4.01;100.00
61961;BME280;47923;42.506;24.192;2023-04-19T00:52:27;95032.66;;;6.96;100.00
61961;BME280;47923;42.506;24.192;2023-04-19T00:54:54;95034.56;;;6.95;100.00
61961;BME280;47923;42.506;24.192;2023-04-19T00:57:20;95032.25;;;6.93;100.00
61961;BME280;47923;42.506;24.192;2023-04-19T00:59:46;95057.34;;;6.85;100.00
61961;BME280;47923;42.506;24.192;2023-04-19T01:02:11;94864.69;;;5.63;100.00
61961;BME280;47923;42.506;24.192;2023-04-19T01:04:37;95030.56;;;6.73;100.00
61961;BME280;47923;42.506;24.192;2023-04-19T01:07:02;94547.88;;;3.54;100.00
61961;BME280;47923;42.506;24.192;2023-04-19T01:09:28;95023.28;;;6.74;100.00
61961;BME280;47923;42.506;24.192;2023-04-19T01:11:53;95043.91;;;6.70;100.00
61961;BME280;47923;42.506;24.192;2023-04-19T01:14:19;95023.78;;;6.63;100.00
61961;BME280;47923;42.506;24.192;2023-04-19T01:16:44;94653.94;;;3.91;100.00
61961;BME280;47923;42.506;24.192;2023-04-19T01:19:11;95014.75;;;6.56;100.00
61961;BME280;47923;42.506;24.192;2023-04-19T01:21:36;95010.06;;;6.53;100.00
61961;BME280;47923;42.506;24.192;2023-04-19T01:24:06;94869.75;;;5.52;100.00
61961;BME280;47923;42.506;24.192;2023-04-19T01:26:32;94925.25;;;5.92;100.00
61961;BME280;47923;42.506;24.192;2023-04-19T01:28:58;94903.97;;;5.71;100.00
61961;BME280;47923;42.506;24.192;2023-04-19T01:31:23;94742.22;;;4.67;100.00
61961;BME280;47923;42.506;24.192;2023-04-19T01:33:49;94928.41;;;5.82;100.00
61961;BME280;47923;42.506;24.192;2023-04-19T01:36:14;95005.44;;;6.37;100.00
61961;BME280;47923;42.506;24.192;2023-04-19T01:38:39;94747.88;;;4.78;100.00
61961;BME280;47923;42.506;24.192;2023-04-19T01:41:05;94858.94;;;5.49;100.00
61961;BME280;47923;42.506;24.192;2023-04-19T01:43:32;94916.75;;;5.90;100.00
61961;BME280;47923;42.506;24.192;2023-04-19T01:45:57;94977.13;;;6.24;100.00
61961;BME280;47923;42.506;24.192;2023-04-19T01:48:23;94995.69;;;6.45;100.00
61961;BME280;47923;42.506;24.192;2023-04-19T01:50:48;94998.91;;;6.51;100.00
61961;BME280;47923;42.506;24.192;2023-04-19T01:53:13;94966.47;;;6.28;100.00
61961;BME280;47923;42.506;24.192;2023-04-19T01:55:39;94988.91;;;6.35;100.00
61961;BME280;47923;42.506;24.192;2023-04-19T01:58:04;94678.75;;;4.28;100.00
61961;BME280;47923;42.506;24.192;2023-04-19T02:00:30;94854.84;;;5.39;100.00
61961;BME280;47923;42.506;24.192;2023-04-19T02:02:55;94970.63;;;6.25;100.00
61961;BME280;47923;42.506;24.192;2023-04-19T02:05:21;94981.56;;;6.32;100.00
61961;BME280;47923;42.506;24.192;2023-04-19T02:07:47;94668.97;;;3.83;100.00
61961;BME280;47923;42.506;24.192;2023-04-19T02:10:12;94883.09;;;5.65;100.00
61961;BME280;47923;42.506;24.192;2023-04-19T02:12:39;94961.06;;;6.12;100.00
61961;BME280;47923;42.506;24.192;2023-04-19T02:15:05;94939.91;;;5.82;100.00
61961;BME280;47923;42.506;24.192;2023-04-19T02:17:31;94751.13;;;4.71;100.00
61961;BME280;47923;42.506;24.192;2023-04-19T02:19:56;94921.34;;;5.90;100.00
61961;BME280;47923;42.506;24.192;2023-04-19T02:22:22;94977.19;;;6.28;100.00
61961;BME280;47923;42.506;24.192;2023-04-19T02:24:49;94972.63;;;6.28;100.00
61961;BME280;47923;42.506;24.192;2023-04-19T02:27:15;94979.53;;;6.29;100.00
61961;BME280;47923;42.506;24.192;2023-04-19T02:29:40;94620.75;;;3.79;100.00
61961;BME280;47923;42.506;24.192;2023-04-19T02:32:06;94967.50;;;5.95;100.00
61961;BME280;47923;42.506;24.192;2023-04-19T02:34:32;94990.84;;;6.23;100.00
61961;BME280;47923;42.506;24.192;2023-04-19T02:36:58;94982.81;;;6.23;100.00
61961;BME280;47923;42.506;24.192;2023-04-19T02:39:24;94580.25;;;3.65;100.00
61961;BME280;47923;42.506;24.192;2023-04-19T02:41:50;94977.13;;;6.24;100.00
61961;BME280;47923;42.506;24.192;2023-04-19T02:44:15;94895.72;;;5.64;100.00
61961;BME280;47923;42.506;24.192;2023-04-19T02:46:41;94817.28;;;5.11;100.00
61961;BME280;47923;42.506;24.192;2023-04-19T02:49:12;94986.31;;;6.11;100.00
61961;BME280;47923;42.506;24.192;2023-04-19T02:51:37;94987.75;;;6.08;100.00
61961;BME280;47923;42.506;24.192;2023-04-19T02:54:03;94897.25;;;5.37;100.00
61961;BME280;47923;42.506;24.192;2023-04-19T02:56:28;94965.34;;;5.89;100.00
61961;BME280;47923;42.506;24.192;2023-04-19T02:58:54;94618.75;;;3.64;100.00
61961;BME280;47923;42.506;24.192;2023-04-19T03:01:21;94798.28;;;4.76;100.00
61961;BME280;47923;42.506;24.192;2023-04-19T03:03:46;94988.59;;;5.97;100.00
61961;BME280;47923;42.506;24.192;2023-04-19T03:06:12;94989.38;;;5.97;100.00
61961;BME280;47923;42.506;24.192;2023-04-19T03:08:37;95001.00;;;5.77;100.00
61961;BME280;47923;42.506;24.192;2023-04-19T03:11:03;94551.09;;;3.11;100.00
61961;BME280;47923;42.506;24.192;2023-04-19T03:13:28;94973.16;;;5.94;100.00
61961;BME280;47923;42.506;24.192;2023-04-19T03:15:53;94873.16;;;5.25;100.00
61961;BME280;47923;42.506;24.192;2023-04-19T03:18:19;94582.25;;;3.19;100.00
61961;BME280;47923;42.506;24.192;2023-04-19T03:20:45;94978.22;;;5.95;100.00
61961;BME280;47923;42.506;24.192;2023-04-19T03:23:11;94981.44;;;5.89;100.00
61961;BME280;47923;42.506;24.192;2023-04-19T03:25:36;94948.31;;;5.69;100.00
61961;BME280;47923;42.506;24.192;2023-04-19T03:28:02;94858.91;;;5.09;100.00
61961;BME280;47923;42.506;24.192;2023-04-19T03:30:27;94975.53;;;5.83;100.00
61961;BME280;47923;42.506;24.192;2023-04-19T03:32:53;94972.94;;;5.87;100.00
61961;BME280;47923;42.506;24.192;2023-04-19T03:35:18;94291.72;;;1.26;100.00
61961;BME280;47923;42.506;24.192;2023-04-19T03:37:43;94981.44;;;5.89;100.00
61961;BME280;47923;42.506;24.192;2023-04-19T03:40:09;94855.56;;;5.12;100.00
61961;BME280;47923;42.506;24.192;2023-04-19T03:42:35;94960.44;;;5.78;100.00
61961;BME280;47923;42.506;24.192;2023-04-19T03:45:00;94979.44;;;5.98;100.00
61961;BME280;47923;42.506;24.192;2023-04-19T03:47:26;94984.44;;;5.99;100.00
61961;BME280;47923;42.506;24.192;2023-04-19T03:49:51;94981.78;;;5.99;100.00
61961;BME280;47923;42.506;24.192;2023-04-19T03:52:17;94768.66;;;4.57;100.00
61961;BME280;47923;42.506;24.192;2023-04-19T03:54:42;94888.06;;;5.50;100.00
61961;BME280;47923;42.506;24.192;2023-04-19T03:57:08;94984.06;;;6.13;100.00
61961;BME280;47923;42.506;24.192;2023-04-19T03:59:34;94966.50;;;6.16;100.00
61961;BME280;47923;42.506;24.192;2023-04-19T04:02:00;94853.94;;;5.35;100.00
61961;BME280;47923;42.506;24.192;2023-04-19T04:04:25;94931.06;;;5.94;100.00
61961;BME280;47923;42.506;24.192;2023-04-19T04:06:50;94719.59;;;4.53;100.00
61961;BME280;47923;42.506;24.192;2023-04-19T04:09:16;94820.72;;;5.24;100.00
61961;BME280;47923;42.506;24.192;2023-04-19T04:11:41;94979.81;;;6.24;100.00
61961;BME280;47923;42.506;24.192;2023-04-19T04:14:07;94983.50;;;6.20;100.00
61961;BME280;47923;42.506;24.192;2023-04-19T04:16:32;94883.50;;;5.51;100.00
61961;BME280;47923;42.506;24.192;2023-04-19T04:18:58;94546.66;;;3.40;100.00
61961;BME280;47923;42.506;24.192;2023-04-19T04:21:23;94974.88;;;6.26;100.00
61961;BME280;47923;42.506;24.192;2023-04-19T04:23:49;94973.16;;;6.34;100.00
61961;BME280;47923;42.506;24.192;2023-04-19T04:26:14;94868.00;;;5.72;100.00
61961;BME280;47923;42.506;24.192;2023-04-19T04:28:40;94958.97;;;6.33;100.00
61961;BME280;47923;42.506;24.192;2023-04-19T04:31:05;94919.53;;;6.22;100.00
61961;BME280;47923;42.506;24.192;2023-04-19T04:33:31;94936.41;;;6.22;100.00
61961;BME280;47923;42.506;24.192;2023-04-19T04:35:56;94898.97;;;6.26;100.00
61961;BME280;47923;42.506;24.192;2023-04-19T04:38:23;94979.56;;;6.89;100.00
61961;BME280;47923;42.506;24.192;2023-04-19T04:40:52;94983.91;;;6.93;100.00
61961;BME280;47923;42.506;24.192;2023-04-19T04:43:19;94844.59;;;6.13;100.00
61961;BME280;47923;42.506;24.192;2023-04-19T04:45:48;94974.63;;;7.07;100.00
61961;BME280;47923;42.506;24.192;2023-04-19T04:48:14;94883.59;;;6.54;100.00
61961;BME280;47923;42.506;24.192;2023-04-19T04:50:40;94907.84;;;6.74;100.00
61961;BME280;47923;42.506;24.192;2023-04-19T04:53:06;94919.69;;;6.73;100.00
61961;BME280;47923;42.506;24.192;2023-04-19T04:55:33;94498.47;;;4.01;100.00
61961;BME280;47923;42.506;24.192;2023-04-19T04:57:59;94981.25;;;7.60;100.00
61961;BME280;47923;42.506;24.192;2023-04-19T05:00:25;94973.34;;;7.67;100.00
61961;BME280;47923;42.506;24.192;2023-04-19T05:02:51;94912.03;;;7.38;100.00
61961;BME280;47923;42.506;24.192;2023-04-19T05:05:16;94984.84;;;7.84;100.00
61961;BME280;47923;42.506;24.192;2023-04-19T05:07:42;94644.78;;;5.72;100.00
61961;BME280;47923;42.506;24.192;2023-04-19T05:10:07;94894.50;;;7.44;100.00
61961;BME280;47923;42.506;24.192;2023-04-19T05:12:33;94987.97;;;8.05;100.00
61961;BME280;47923;42.506;24.192;2023-04-19T05:14:58;94980.81;;;8.13;100.00
61961;BME280;47923;42.506;24.192;2023-04-19T05:17:24;94547.22;;;5.25;100.00
61961;BME280;47923;42.506;24.192;2023-04-19T05:19:49;94983.38;;;8.25;100.00
61961;BME280;47923;42.506;24.192;2023-04-19T05:22:15;94986.13;;;8.28;100.00
61961;BME280;47923;42.506;24.192;2023-04-19T05:24:41;94976.25;;;8.32;100.00
61961;BME280;47923;42.506;24.192;2023-04-19T05:27:06;94894.94;;;7.85;100.00
61961;BME280;47923;42.506;24.192;2023-04-19T05:29:31;94891.78;;;7.79;100.00
61961;BME280;47923;42.506;24.192;2023-04-19T05:31:57;94902.25;;;8.03;100.00
61961;BME280;47923;42.506;24.192;2023-04-19T05:34:23;94980.69;;;8.64;100.00
61961;BME280;47923;42.506;24.192;2023-04-19T05:36:48;94987.34;;;8.70;100.00
61961;BME280;47923;42.506;24.192;2023-04-19T05:39:14;94589.28;;;5.88;100.00
61961;BME280;47923;42.506;24.192;2023-04-19T05:41:39;94988.13;;;8.70;100.00
61961;BME280;47923;42.506;24.192;2023-04-19T05:44:05;95004.66;;;8.69;100.00
61961;BME280;47923;42.506;24.192;2023-04-19T05:46:31;94675.69;;;6.68;100.00
61961;BME280;47923;42.506;24.192;2023-04-19T05:48:56;94701.78;;;6.86;99.73
61961;BME280;47923;42.506;24.192;2023-04-19T05:51:22;94911.63;;;8.32;99.01
61961;BME280;47923;42.506;24.192;2023-04-19T05:53:47;94996.19;;;8.90;98.72
61961;BME280;47923;42.506;24.192;2023-04-19T05:56:13;94992.41;;;8.94;97.42
61961;BME280;47923;42.506;24.192;2023-04-19T05:58:38;94828.22;;;7.90;96.09
61961;BME280;47923;42.506;24.192;2023-04-19T06:01:04;94987.25;;;9.08;96.23
61961;BME280;47923;42.506;24.192;2023-04-19T06:03:31;94844.88;;;8.19;94.91
61961;BME280;47923;42.506;24.192;2023-04-19T06:05:58;94992.19;;;9.26;93.83
61961;BME280;47923;42.506;24.192;2023-04-19T06:08:24;94922.13;;;8.80;92.92
61961;BME280;47923;42.506;24.192;2023-04-19T06:10:49;94862.69;;;8.69;92.53
61961;BME280;47923;42.506;24.192;2023-04-19T06:13:15;94911.75;;;9.05;90.84
61961;BME280;47923;42.506;24.192;2023-04-19T06:15:41;94649.31;;;7.31;90.17
61961;BME280;47923;42.506;24.192;2023-04-19T06:18:07;94980.94;;;9.73;88.79
61961;BME280;47923;42.506;24.192;2023-04-19T06:20:38;94989.56;;;9.82;88.24
61961;BME280;47923;42.506;24.192;2023-04-19T06:23:05;94995.03;;;9.89;87.80
61961;BME280;47923;42.506;24.192;2023-04-19T06:25:31;94995.50;;;9.95;85.89
61961;BME280;47923;42.506;24.192;2023-04-19T06:27:57;94674.25;;;7.74;85.44
61961;BME280;47923;42.506;24.192;2023-04-19T06:30:23;94991.06;;;10.06;85.51
61961;BME280;47923;42.506;24.192;2023-04-19T06:32:49;95001.97;;;10.17;85.53
61961;BME280;47923;42.506;24.192;2023-04-19T06:35:14;94511.94;;;7.10;85.47
61961;BME280;47923;42.506;24.192;2023-04-19T06:37:40;95004.66;;;10.43;85.88
61961;BME280;47923;42.506;24.192;2023-04-19T06:40:06;94591.09;;;7.62;83.32
61961;BME280;47923;42.506;24.192;2023-04-19T06:42:36;94737.63;;;8.93;84.03
61961;BME280;47923;42.506;24.192;2023-04-19T06:45:01;94938.00;;;10.51;84.32
61961;BME280;47923;42.506;24.192;2023-04-19T06:47:28;94923.59;;;10.77;83.08
61961;BME280;47923;42.506;24.192;2023-04-19T06:49:54;94989.53;;;11.57;83.41
61961;BME280;47923;42.506;24.192;2023-04-19T06:52:20;94781.97;;;10.34;80.84
61961;BME280;47923;42.506;24.192;2023-04-19T06:54:50;95013.78;;;11.91;77.28
61961;BME280;47923;42.506;24.192;2023-04-19T06:57:16;94997.69;;;12.16;74.68
61961;BME280;47923;42.506;24.192;2023-04-19T06:59:42;95004.72;;;12.31;74.59
61961;BME280;47923;42.506;24.192;2023-04-19T07:02:07;94903.16;;;11.86;73.16
61961;BME280;47923;42.506;24.192;2023-04-19T07:04:33;95009.22;;;12.96;72.64
61961;BME280;47923;42.506;24.192;2023-04-19T07:06:59;94997.31;;;13.47;70.13
61961;BME280;47923;42.506;24.192;2023-04-19T07:09:25;95000.38;;;13.85;67.53
61961;BME280;47923;42.506;24.192;2023-04-19T07:11:50;94997.28;;;13.97;66.62
61961;BME280;47923;42.506;24.192;2023-04-19T07:14:17;94883.69;;;13.57;63.38
61961;BME280;47923;42.506;24.192;2023-04-19T07:16:45;94653.78;;;12.37;62.83
61961;BME280;47923;42.506;24.192;2023-04-19T07:19:12;95004.34;;;14.93;59.79
61961;BME280;47923;42.506;24.192;2023-04-19T07:21:38;94443.06;;;11.86;60.28
61961;BME280;47923;42.506;24.192;2023-04-19T07:24:07;94728.72;;;14.69;57.60
61961;BME280;47923;42.506;24.192;2023-04-19T07:26:32;94725.31;;;15.71;51.80
61961;BME280;47923;42.506;24.192;2023-04-19T07:29:00;94728.97;;;17.16;48.72
61961;BME280;47923;42.506;24.192;2023-04-19T07:31:26;95015.03;;;20.09;48.22
61961;BME280;47923;42.506;24.192;2023-04-19T07:33:52;94855.38;;;20.73;41.21
61961;BME280;47923;42.506;24.192;2023-04-19T07:36:19;94905.44;;;24.36;36.29
61961;BME280;47923;42.506;24.192;2023-04-19T07:38:45;94981.06;;;26.59;31.76
61961;BME280;47923;42.506;24.192;2023-04-19T07:41:11;94716.28;;;25.16;30.17
61961;BME280;47923;42.506;24.192;2023-04-19T07:43:37;94737.03;;;24.78;32.76
61961;BME280;47923;42.506;24.192;2023-04-19T07:46:13;94987.00;;;25.95;33.62
61961;BME280;47923;42.506;24.192;2023-04-19T07:48:40;94776.47;;;24.79;32.56
61961;BME280;47923;42.506;24.192;2023-04-19T07:51:16;94775.56;;;23.39;31.12
61961;BME280;47923;42.506;24.192;2023-04-19T07:53:42;94814.44;;;22.51;33.38
61961;BME280;47923;42.506;24.192;2023-04-19T07:56:09;94896.47;;;22.66;36.64
61961;BME280;47923;42.506;24.192;2023-04-19T07:58:36;94812.19;;;21.71;35.24
61961;BME280;47923;42.506;24.192;2023-04-19T08:01:02;94739.19;;;22.54;32.21
61961;BME280;47923;42.506;24.192;2023-04-19T08:03:29;94978.38;;;27.18;30.46
61961;BME280;47923;42.506;24.192;2023-04-19T08:05:54;94803.75;;;27.59;27.65
61961;BME280;47923;42.506;24.192;2023-04-19T08:08:20;94976.00;;;29.18;26.96
61961;BME280;47923;42.506;24.192;2023-04-19T08:10:46;94925.19;;;29.50;26.31
61961;BME280;47923;42.506;24.192;2023-04-19T08:13:12;94937.88;;;29.25;25.23
61961;BME280;47923;42.506;24.192;2023-04-19T08:15:40;94983.13;;;30.20;25.10
61961;BME280;47923;42.506;24.192;2023-04-19T08:18:06;94785.50;;;28.19;24.25
61961;BME280;47923;42.506;24.192;2023-04-19T08:20:36;94873.19;;;28.05;26.18
61961;BME280;47923;42.506;24.192;2023-04-19T08:23:09;94977.47;;;28.88;26.06
61961;BME280;47923;42.506;24.192;2023-04-19T08:25:38;94966.59;;;27.23;27.33
61961;BME280;47923;42.506;24.192;2023-04-19T08:28:06;94975.22;;;26.09;28.67
61961;BME280;47923;42.506;24.192;2023-04-19T08:30:31;94664.28;;;25.98;29.08
61961;BME280;47923;42.506;24.192;2023-04-19T08:32:57;94972.59;;;29.03;25.16
61961;BME280;47923;42.506;24.192;2023-04-19T08:35:23;94944.47;;;29.27;25.32
61961;BME280;47923;42.506;24.192;2023-04-19T08:37:51;94699.97;;;27.92;25.29
61961;BME280;47923;42.506;24.192;2023-04-19T08:40:20;94676.53;;;28.56;23.65
61961;BME280;47923;42.506;24.192;2023-04-19T08:42:48;94762.00;;;28.41;24.47
61961;BME280;47923;42.506;24.192;2023-04-19T08:45:15;94960.41;;;29.01;24.90
61961;BME280;47923;42.506;24.192;2023-04-19T08:47:41;94959.94;;;28.35;25.79
61961;BME280;47923;42.506;24.192;2023-04-19T08:50:07;94745.06;;;27.46;25.62
61961;BME280;47923;42.506;24.192;2023-04-19T08:52:36;94951.03;;;28.52;24.45
61961;BME280;47923;42.506;24.192;2023-04-19T08:55:06;94943.16;;;27.89;26.00
61961;BME280;47923;42.506;24.192;2023-04-19T08:57:33;94948.81;;;27.15;26.92
61961;BME280;47923;42.506;24.192;2023-04-19T09:00:00;94950.88;;;28.00;25.81
61961;BME280;47923;42.506;24.192;2023-04-19T09:02:27;94728.00;;;27.12;24.37
61961;BME280;47923;42.506;24.192;2023-04-19T09:04:52;94934.56;;;28.48;24.19
61961;BME280;47923;42.506;24.192;2023-04-19T09:07:25;94940.34;;;29.17;24.09
61961;BME280;47923;42.506;24.192;2023-04-19T09:10:09;94652.28;;;27.67;23.88
61961;BME280;47923;42.506;24.192;2023-04-19T09:12:36;94927.00;;;30.44;22.52
61961;BME280;47923;42.506;24.192;2023-04-19T09:15:03;94472.56;;;25.77;23.93
61961;BME280;47923;42.506;24.192;2023-04-19T09:17:30;94849.38;;;28.19;23.38
61961;BME280;47923;42.506;24.192;2023-04-19T09:19:56;94922.88;;;29.80;23.22
61961;BME280;47923;42.506;24.192;2023-04-19T09:22:22;94930.03;;;29.92;22.68
61961;BME280;47923;42.506;24.192;2023-04-19T09:24:49;94925.63;;;31.04;22.15
61961;BME280;47923;42.506;24.192;2023-04-19T09:27:24;94788.22;;;30.98;21.24
61961;BME280;47923;42.506;24.192;2023-04-19T09:29:53;94626.88;;;31.30;20.08
61961;BME280;47923;42.506;24.192;2023-04-19T09:32:20;94932.72;;;32.06;20.87
61961;BME280;47923;42.506;24.192;2023-04-19T09:34:54;94922.06;;;30.98;21.13
61961;BME280;47923;42.506;24.192;2023-04-19T09:37:20;94651.94;;;26.78;23.05
61961;BME280;47923;42.506;24.192;2023-04-19T09:39:46;94924.91;;;27.83;24.68
61961;BME280;47923;42.506;24.192;2023-04-19T09:42:12;94938.34;;;28.71;23.40
61961;BME280;47923;42.506;24.192;2023-04-19T09:44:37;94732.81;;;28.51;21.93
61961;BME280;47923;42.506;24.192;2023-04-19T09:47:20;94915.34;;;29.91;21.64
61961;BME280;47923;42.506;24.192;2023-04-19T09:49:47;94592.06;;;28.85;22.21
61961;BME280;47923;42.506;24.192;2023-04-19T09:52:28;94887.84;;;30.81;21.10
61961;BME280;47923;42.506;24.192;2023-04-19T09:54:54;94814.34;;;31.01;21.89
61961;BME280;47923;42.506;24.192;2023-04-19T09:57:22;94926.38;;;31.95;20.47
61961;BME280;47923;42.506;24.192;2023-04-19T09:59:48;94913.22;;;31.89;21.68
61961;BME280;47923;42.506;24.192;2023-04-19T10:02:13;94908.59;;;30.69;21.29
61961;BME280;47923;42.506;24.192;2023-04-19T10:04:41;94543.38;;;29.01;19.79
61961;BME280;47923;42.506;24.192;2023-04-19T10:07:07;94908.41;;;31.73;20.27
61961;BME280;47923;42.506;24.192;2023-04-19T10:09:34;94550.13;;;29.98;19.82
61961;BME280;47923;42.506;24.192;2023-04-19T10:12:01;94911.81;;;32.35;19.16
61961;BME280;47923;42.506;24.192;2023-04-19T10:14:28;94905.03;;;32.66;18.55
61961;BME280;47923;42.506;24.192;2023-04-19T10:17:06;94910.81;;;32.80;18.47
61961;BME280;47923;42.506;24.192;2023-04-19T10:19:34;94907.03;;;32.19;19.72
61961;BME280;47923;42.506;24.192;2023-04-19T10:22:01;94655.16;;;30.88;17.92
61961;BME280;47923;42.506;24.192;2023-04-19T10:24:32;94796.00;;;32.25;17.55
61961;BME280;47923;42.506;24.192;2023-04-19T10:27:13;94694.81;;;32.38;18.06
61961;BME280;47923;42.506;24.192;2023-04-19T10:30:03;94625.97;;;30.94;17.16
61961;BME280;47923;42.506;24.192;2023-04-19T10:32:40;94891.19;;;32.38;19.08
61961;BME280;47923;42.506;24.192;2023-04-19T10:35:27;94865.84;;;30.18;19.26
61961;BME280;47923;42.506;24.192;2023-04-19T10:38:09;94893.88;;;28.71;21.49
61961;BME280;47923;42.506;24.192;2023-04-19T10:43:30;94819.03;;;28.62;22.10
61961;BME280;47923;42.506;24.192;2023-04-19T10:46:00;94780.69;;;27.53;21.84
61961;BME280;47923;42.506;24.192;2023-04-19T10:51:10;94894.22;;;27.71;22.46
61961;BME280;47923;42.506;24.192;2023-04-19T11:04:11;94920.75;;;21.54;33.37
61961;BME280;47923;42.506;24.192;2023-04-19T11:06:56;94908.25;;;19.57;38.01
61961;BME280;47923;42.506;24.192;2023-04-19T11:11:58;94308.28;;;14.59;40.54
61961;BME280;47923;42.506;24.192;2023-04-19T11:14:24;94601.25;;;15.97;42.17
61961;BME280;47923;42.506;24.192;2023-04-19T11:16:50;94709.47;;;16.47;42.50
61961;BME280;47923;42.506;24.192;2023-04-19T11:19:16;94757.09;;;16.89;43.04
61961;BME280;47923;42.506;24.192;2023-04-19T11:21:44;94915.53;;;17.52;44.94
61961;BME280;47923;42.506;24.192;2023-04-19T11:24:10;94520.75;;;13.68;45.97
61961;BME280;47923;42.506;24.192;2023-04-19T11:26:36;94889.94;;;16.00;47.47
61961;BME280;47923;42.506;24.192;2023-04-19T11:29:02;94932.44;;;16.28;47.22
61961;BME280;47923;42.506;24.192;2023-04-19T11:31:28;94946.94;;;15.36;48.24
61961;BME280;47923;42.506;24.192;2023-04-19T11:33:58;94918.44;;;14.99;49.52
61961;BME280;47923;42.506;24.192;2023-04-19T11:36:25;94921.91;;;15.03;48.66
61961;BME280;47923;42.506;24.192;2023-04-19T11:38:52;94920.75;;;15.49;49.01
61961;BME280;47923;42.506;24.192;2023-04-19T11:41:17;94627.75;;;13.70;48.30
61961;BME280;47923;42.506;24.192;2023-04-19T11:43:43;94839.50;;;15.06;49.37
61961;BME280;47923;42.506;24.192;2023-04-19T11:46:11;94825.88;;;15.10;48.53
61961;BME280;47923;42.506;24.192;2023-04-19T11:48:38;94794.34;;;14.68;49.46
61961;BME280;47923;42.506;24.192;2023-04-19T11:51:04;94551.31;;;13.13;49.05
61961;BME280;47923;42.506;24.192;2023-04-19T11:53:31;94507.19;;;13.09;48.82
61961;BME280;47923;42.506;24.192;2023-04-19T11:56:03;94933.34;;;15.36;50.65
61961;BME280;47923;42.506;24.192;2023-04-19T11:58:43;94767.91;;;14.09;52.46
61961;BME280;47923;42.506;24.192;2023-04-19T12:01:11;94922.41;;;14.87;53.25
61961;BME280;47923;42.506;24.192;2023-04-19T12:03:48;94843.19;;;14.82;52.81
61961;BME280;47923;42.506;24.192;2023-04-19T12:06:16;94922.31;;;15.95;53.08
61961;BME280;47923;42.506;24.192;2023-04-19T12:08:46;94811.06;;;15.14;52.33
61961;BME280;47923;42.506;24.192;2023-04-19T12:11:13;94921.88;;;15.55;53.26
61961;BME280;47923;42.506;24.192;2023-04-19T12:13:38;94919.63;;;15.50;51.91
61961;BME280;47923;42.506;24.192;2023-04-19T12:16:08;94693.09;;;14.01;51.31
61961;BME280;47923;42.506;24.192;2023-04-19T12:19:10;94605.13;;;13.28;51.27
61961;BME280;47923;42.506;24.192;2023-04-19T12:21:39;94350.75;;;11.52;52.19
61961;BME280;47923;42.506;24.192;2023-04-19T12:24:05;94920.25;;;15.16;52.17
61961;BME280;47923;42.506;24.192;2023-04-19T12:26:31;94622.28;;;13.00;51.88
61961;BME280;47923;42.506;24.192;2023-04-19T12:28:58;94643.91;;;13.18;53.59
61961;BME280;47923;42.506;24.192;2023-04-19T12:31:24;94919.75;;;15.32;53.34
61961;BME280;47923;42.506;24.192;2023-04-19T12:33:51;94910.75;;;15.39;52.90
61961;BME280;47923;42.506;24.192;2023-04-19T12:36:17;94914.66;;;15.83;53.21
61961;BME280;47923;42.506;24.192;2023-04-19T12:38:42;94916.59;;;16.20;51.66
61961;BME280;47923;42.506;24.192;2023-04-19T12:41:08;94898.84;;;16.05;51.96
61961;BME280;47923;42.506;24.192;2023-04-19T12:43:33;94682.44;;;14.28;53.80
61961;BME280;47923;42.506;24.192;2023-04-19T12:45:59;94619.06;;;13.93;53.34
61961;BME280;47923;42.506;24.192;2023-04-19T12:48:25;94582.09;;;14.06;52.53
61961;BME280;47923;42.506;24.192;2023-04-19T12:50:51;94815.25;;;15.64;51.75
61961;BME280;47923;42.506;24.192;2023-04-19T12:53:16;94894.59;;;16.03;49.94
61961;BME280;47923;42.506;24.192;2023-04-19T12:55:42;94802.91;;;15.52;49.34
61961;BME280;47923;42.506;24.192;2023-04-19T12:58:18;94883.25;;;16.09;48.24
61961;BME280;47923;42.506;24.192;2023-04-19T13:00:45;94809.59;;;16.16;48.66
61961;BME280;47923;42.506;24.192;2023-04-19T13:03:11;94770.75;;;16.08;48.00
61961;BME280;47923;42.506;24.192;2023-04-19T13:05:37;94747.97;;;15.95;48.24
61961;BME280;47923;42.506;24.192;2023-04-19T13:08:37;94530.66;;;14.68;48.78